Latest Weather Observations for Norah Head

IDN60801

Issued at 2:42 pm EST Sunday 5 April 2020 (issued every 10 minutes, with the page automatically refreshed every 10 minutes)

About weather observations | Map of weather stations | Latest weather observations for NSW | Other Formats
Station Details ID: 061366 Name: NORAH HEAD AWS Lat: -33.28 Lon: 151.58 Height: 18.8 m
Data from the previous 72 hours. | See also: Recent months at Norah Head
Date/Time
EST
Temp
°C
App
Temp
°C
Dew
Point
°C
Rel
Hum
%
Delta-T
°C
Wind Press
QNH
hPa
Press
MSL
hPa
Rain since
9am
mm
Dir  Spd
km/h
Gust
km/h
Spd
kts
Gust
kts
05/02:30pm 23.8 22.0 9.4 40 7.8 WNW 9 22 5 12 1011.7 1011.6 0.0
05/02:00pm 23.6 21.6 8.8 39 7.9 NW 9 24 5 13 1011.8 1011.7 0.0
05/01:30pm 23.6 21.9 9.9 42 7.5 NW 9 17 5 9 1012.2 1012.1 0.0
05/01:00pm 23.4 22.0 10.8 45 7.0 NW 9 22 5 12 1012.3 1012.2 0.0
05/12:30pm 23.2 22.0 10.3 44 7.1 NW 7 19 4 10 1013.0 1012.9 0.0
05/12:00pm 23.8 23.2 12.4 48 6.5 NNW 7 17 4 9 1013.3 1013.2 0.0
05/11:30am 21.6 19.8 9.5 46 6.5 NW 9 24 5 13 1014.0 1013.9 0.0
05/11:00am 21.3 19.2 9.9 48 6.2 WNW 11 20 6 11 1014.4 1014.3 0.0
05/10:30am 20.5 19.1 9.4 49 5.9 NW 7 20 4 11 1014.6 1014.5 0.0
05/10:00am 19.8 18.4 9.4 51 5.5 WNW 7 19 4 10 1014.7 1014.6 0.0
05/09:30am 19.5 18.0 9.1 51 5.5 WNW 7 15 4 8 1015.0 1014.9 0.0
05/09:00am 19.1 17.6 9.3 53 5.2 NNW 7 17 4 9 1015.1 1015.0 0.0
05/08:30am 18.1 16.2 8.9 55 4.8 NW 9 20 5 11 1015.2 1015.1 0.0
05/08:00am 17.4 15.9 9.1 58 4.3 W 7 17 4 9 1015.0 1014.9 0.0
05/07:30am 16.4 14.8 8.6 60 4.0 WNW 7 19 4 10 1014.6 1014.5 0.0
05/07:00am 15.2 13.1 8.2 63 3.5 WNW 9 19 5 10 1014.2 1014.1 0.0
05/06:30am 14.1 12.4 8.5 69 2.8 WNW 7 13 4 7 1013.6 1013.5 0.0
05/06:00am 13.4 12.4 8.7 73 2.4 WNW 4 7 2 4 1013.4 1013.3 0.0
05/05:30am 13.9 12.0 8.9 72 2.5 NW 9 15 5 8 1012.9 1012.8 0.0
05/05:00am 14.5 13.0 9.3 71 2.7 NW 7 13 4 7 1012.5 1012.4 0.0
05/04:30am 14.4 12.9 9.2 71 2.7 NNW 7 13 4 7 1012.2 1012.1 0.0
05/04:00am 14.8 13.8 8.7 67 3.1 NW 4 11 2 6 1012.0 1011.9 0.0
05/03:30am 15.0 13.6 8.9 67 3.1 NW 6 15 3 8 1011.7 1011.6 0.0
05/03:00am 15.2 13.6 8.2 63 3.5 WNW 6 11 3 6 1011.4 1011.3 0.0
05/03:30am 15.9 14.2 8.2 60 3.9 WNW 7 13 4 7 1011.5 1011.4 0.0
05/03:00am 15.9 14.3 8.9 63 3.6 NW 7 13 4 7 1011.4 1011.3 0.0
05/02:30am 15.7 14.5 9.4 66 3.3 WNW 6 11 3 6 1011.4 1011.3 0.0
05/02:00am 15.5 14.4 10.1 70 2.8 NW 6 13 3 7 1011.5 1011.4 0.0
05/01:30am 15.9 15.2 10.0 68 3.1 NW 4 7 2 4 1011.3 1011.2 0.0
05/01:00am 15.8 15.0 9.7 67 3.2 NW 4 7 2 4 1011.2 1011.1 0.0
05/12:30am 16.3 15.1 9.5 64 3.5 NNW 6 9 3 5 1010.9 1010.8 0.0
05/12:00am 16.9 15.6 9.3 61 4.0 NW 6 9 3 5 1010.7 1010.6 0.0
 
Date/Time
EST
Temp
°C
App
Temp
°C
Dew
Point
°C
Rel
Hum
%
Delta-T
°C
Wind Press
QNH
hPa
Press
MSL
hPa
Rain since
9am
mm
Dir  Spd
km/h
Gust
km/h
Spd
kts
Gust
kts
04/11:30pm 17.5 16.6 9.4 59 4.2 NW 4 9 2 5 1010.5 1010.4 0.0
04/11:00pm 17.9 16.9 8.7 55 4.8 W 4 11 2 6 1010.2 1010.1 0.0
04/10:30pm 18.1 16.5 8.1 52 5.1 WNW 6 19 3 10 1010.1 1010.0 0.0
04/10:00pm 17.9 16.9 8.7 55 4.8 WNW 4 9 2 5 1009.7 1009.6 0.0
04/09:30pm 18.3 16.8 8.3 52 5.1 NW 6 15 3 8 1009.2 1009.2 0.0
04/09:00pm 19.2 17.6 7.9 48 5.8 WNW 6 13 3 7 1008.6 1008.6 0.0
04/08:30pm 19.4 17.9 8.4 49 5.7 NW 6 15 3 8 1008.1 1008.1 0.0
04/08:00pm 19.4 18.1 9.3 52 5.3 WNW 6 11 3 6 1007.4 1007.4 0.0
04/07:30pm 20.4 19.0 8.7 47 6.1 WNW 6 19 3 10 1006.5 1006.5 0.0
04/07:00pm 21.2 18.8 8.5 44 6.7 WNW 11 32 6 17 1005.6 1005.6 0.0
04/06:30pm 21.8 19.7 8.3 42 7.1 WNW 9 13 5 7 1004.9 1004.9 0.0
04/06:00pm 22.6 19.7 8.3 40 7.6 WNW 13 26 7 14 1004.0 1004.0 0.0
04/05:30pm 23.5 21.0 8.4 38 8.0 W 11 24 6 13 1003.5 1003.5 0.0
04/05:00pm 23.9 20.5 7.5 35 8.6 WNW 15 32 8 17 1002.9 1002.9 0.0
04/04:30pm 24.5 21.2 8.0 35 8.8 WNW 15 26 8 14 1002.5 1002.5 0.0
04/04:00pm 25.1 22.3 8.6 35 8.9 W 13 26 7 14 1002.1 1002.1 0.0
04/03:30pm 25.4 20.7 6.1 29 10.0 W 20 44 11 24 1001.5 1001.5 0.0
04/03:00pm 25.9 22.1 7.5 31 9.8 W 17 35 9 19 1000.9 1000.9 0.0
04/02:30pm 26.6 23.4 11.1 38 8.8 WNW 19 43 10 23 1000.3 1000.3 0.0
04/02:00pm 26.7 24.2 12.4 41 8.3 WNW 17 33 9 18 999.9 999.9 0.0
04/01:30pm 26.4 23.8 12.1 41 8.2 WNW 17 39 9 21 999.9 999.9 0.0
04/01:00pm 26.1 24.7 14.6 49 6.9 WNW 15 32 8 17 1000.0 1000.0 0.0
04/12:30pm 24.2 26.7 19.9 77 2.8 W 6 26 3 14 1000.1 1000.1 0.0
04/12:00pm 23.2 21.2 20.0 82 2.1 N 30 35 16 19 999.7 999.7 0.0
04/11:30am 23.6 23.9 21.5 88 1.4 N 22 26 12 14 1000.0 1000.0 0.0
04/11:00am 22.6 22.3 21.9 96 0.5 N 26 28 14 15 1000.4 1000.4 0.0
04/10:30am 21.5 21.8 21.5 100 0.0 N 22 26 12 14 1000.6 1000.6 0.0
04/10:00am 20.4 20.1 20.4 100 0.0 N 22 26 12 14 1000.6 1000.6 0.0
04/09:30am 20.1 19.7 20.1 100 0.0 N 22 26 12 14 1000.3 1000.3 0.0
04/09:00am 20.0 20.1 20.0 100 0.0 NNE 19 22 10 12 999.8 999.8 19.2
04/08:30am 20.1 20.3 20.1 100 0.0 NNE 19 22 10 12 999.6 999.6 18.6
04/08:00am 19.5 21.0 19.0 97 0.3 NW 9 17 5 9 999.3 999.3 17.6
04/07:30am 20.6 20.1 19.9 96 0.4 N 22 28 12 15 999.2 999.2 13.0
04/07:00am 20.7 19.7 19.7 94 0.6 NNE 24 30 13 16 998.6 998.6 12.8
04/06:30am 21.0 19.3 19.8 93 0.8 N 28 33 15 18 998.8 998.8 12.8
04/06:00am 21.0 18.9 19.8 93 0.8 N 30 35 16 19 998.7 998.7 12.8
04/05:30am 21.0 18.3 19.7 92 0.8 N 33 37 18 20 998.7 998.7 12.8
04/05:00am 21.0 19.4 20.0 94 0.6 N 28 32 15 17 998.7 998.7 12.8
04/04:30am 20.8 18.9 20.1 96 0.4 N 30 32 16 17 998.8 998.8 12.8
04/04:00am 20.2 20.3 20.0 99 0.1 NNE 19 20 10 11 999.2 999.2 12.8
04/03:30am 20.6 20.4 19.8 95 0.5 NNE 20 24 11 13 999.8 999.8 12.8
04/03:00am 20.8 18.6 19.5 92 0.8 N 30 32 16 17 1000.3 1000.3 12.8
04/02:30am 20.8 20.0 20.1 96 0.4 N 24 28 13 15 1000.8 1000.8 12.8
04/02:00am 20.7 19.1 20.0 96 0.4 N 28 32 15 17 1001.2 1001.2 12.8
04/01:30am 20.9 18.6 20.6 98 0.2 N 33 37 18 20 1001.6 1001.6 12.8
04/01:00am 20.5 19.9 20.5 100 0.0 NNE 24 30 13 16 1002.2 1002.2 12.6
04/12:30am 20.6 20.4 20.6 100 0.0 NNE 22 26 12 14 1002.8 1002.8 12.6
04/12:00am 20.7 20.2 20.7 100 0.0 N 24 32 13 17 1003.4 1003.4 12.6
 
Date/Time
EST
Temp
°C
App
Temp
°C
Dew
Point
°C
Rel
Hum
%
Delta-T
°C
Wind Press
QNH
hPa
Press
MSL
hPa
Rain since
9am
mm
Dir  Spd
km/h
Gust
km/h
Spd
kts
Gust
kts
03/11:30pm 20.8 18.6 20.8 100 0.0 N 33 41 18 22 1003.7 1003.7 12.6
03/11:00pm 21.0 18.2 21.0 100 0.0 N 37 43 20 23 1003.9 1003.9 12.6
03/10:30pm 21.0 19.9 21.0 100 0.0 N 28 35 15 19 1004.3 1004.3 12.6
03/10:00pm 21.1 19.1 21.1 100 0.0 N 33 37 18 20 1004.3 1004.3 12.6
03/09:30pm 21.1 20.0 21.1 100 0.0 N 28 32 15 17 1004.5 1004.5 12.6
03/09:00pm 21.0 19.9 21.0 100 0.0 NNE 28 32 15 17 1004.5 1004.5 12.6
03/08:30pm 20.7 19.1 20.7 100 0.0 NNE 30 33 16 18 1004.8 1004.8 12.4
03/08:00pm 20.6 21.0 20.6 100 0.0 NE 19 22 10 12 1005.1 1005.1 12.4
03/07:30pm 20.2 21.5 20.2 100 0.0 NE 13 15 7 8 1005.5 1005.5 12.4
03/07:00pm 20.1 20.3 20.1 100 0.0 NE 19 22 10 12 1005.6 1005.6 12.2
03/06:30pm 20.3 20.4 20.3 100 0.0 N 20 24 11 13 1006.0 1006.0 8.0
03/06:00pm 20.5 21.6 20.5 100 0.0 N 15 17 8 9 1005.7 1005.7 4.4
03/05:30pm 21.1 23.3 21.1 100 0.0 N 11 15 6 8 1005.4 1005.4 3.2
03/05:00pm 21.3 23.6 21.3 100 0.0 NNE 11 13 6 7 1005.5 1005.5 1.8
03/04:30pm 21.7 23.3 21.4 98 0.2 NNE 15 17 8 9 1005.8 1005.8 0.8
03/04:00pm 21.9 23.2 20.9 94 0.7 NNE 15 17 8 9 1006.2 1006.2 0.4
03/03:30pm 22.6 23.0 19.9 85 1.7 NNE 17 19 9 10 1006.4 1006.4 0.0
03/03:00pm 24.5 25.6 21.2 82 2.2 NE 17 19 9 10 1006.7 1006.7 0.0
03/02:30pm 25.1 27.4 22.0 83 2.1 NE 13 15 7 8 1007.2 1007.2 0.0
03/02:00pm 24.4 27.6 21.3 83 2.0 NNE 6 7 3 4 1007.7 1007.7 0.0
03/01:30pm 23.5 26.3 20.8 85 1.8 ENE 7 11 4 6 1008.0 1008.0 0.0
03/01:00pm 23.6 26.3 20.7 84 1.9 ENE 7 9 4 5 1008.9 1008.9 0.0
03/12:30pm 23.7 26.4 20.2 81 2.3 ENE 6 7 3 4 1009.7 1009.6 0.0
03/12:00pm 24.1 26.7 20.4 80 2.4 NE 7 9 4 5 1010.1 1010.0 0.0
03/11:30am 25.0 27.8 20.5 76 2.9 NNE 6 9 3 5 1009.9 1009.8 0.0
03/11:00am 24.7 27.4 20.6 78 2.7 NNE 7 9 4 5 1009.9 1009.8 0.0
03/10:30am 24.3 26.6 19.4 74 3.1 NNW 6 9 3 5 1009.9 1009.8 0.0
03/10:00am 24.0 26.8 20.5 81 2.3 NNE 6 7 3 4 1010.1 1010.0 0.0
03/09:30am 22.8 25.1 19.8 83 1.9 NNE 7 11 4 6 1010.3 1010.2 0.0
03/09:00am 21.4 23.4 18.8 85 1.6 NW 6 11 3 6 1010.2 1010.1 8.2
03/08:30am 20.6 23.3 19.4 93 0.8 NNW 4 9 2 5 1010.4 1010.3 8.2
03/08:00am 19.1 20.9 18.4 96 0.4 WNW 6 15 3 8 1010.2 1010.1 8.2
03/07:30am 18.5 20.3 18.3 99 0.1 NW 6 13 3 7 1010.1 1010.0 8.2
03/07:00am 18.4 20.5 18.2 99 0.1 WNW 4 6 2 3 1009.9 1009.8 8.2
03/06:30am 18.7 21.0 18.5 99 0.1 NW 4 9 2 5 1009.8 1009.7 8.2
03/06:00am 18.6 20.5 18.6 100 0.0 NW 6 9 3 5 1009.5 1009.4 8.0
03/05:30am 18.3 20.1 18.3 100 0.0 NW 6 7 3 4 1009.1 1009.1 8.0
03/05:00am 18.4 20.2 18.4 100 0.0 NW 6 11 3 6 1009.1 1009.1 8.0
03/04:30am 18.8 19.9 18.8 100 0.0 NNW 11 13 6 7 1009.1 1009.1 8.0
03/04:00am 18.8 20.3 18.8 100 0.0 NW 9 11 5 6 1009.6 1009.5 8.0
03/03:30am 18.8 20.3 18.8 100 0.0 NNW 9 13 5 7 1009.6 1009.5 8.0
03/03:00am 18.8 20.6 18.8 100 0.0 NW 7 11 4 6 1010.0 1009.9 8.0
03/02:30am 19.1 21.6 19.1 100 0.0 NW 4 7 2 4 1010.1 1010.0 8.0
03/02:00am 19.0 20.9 19.0 100 0.0 NW 7 11 4 6 1010.3 1010.2 8.0
03/01:30am 19.1 21.3 19.1 100 0.0 NW 6 11 3 6 1010.4 1010.3 8.0
03/01:00am 19.3 20.6 19.3 100 0.0 NW 11 15 6 8 1010.4 1010.3 8.0
03/12:30am 19.6 20.7 19.6 100 0.0 NNW 13 17 7 9 1010.6 1010.5 8.0
03/12:00am 19.8 20.2 19.8 100 0.0 NNW 17 22 9 12 1010.8 1010.7 7.8
 
Date/Time
EST
Temp
°C
App
Temp
°C
Dew
Point
°C
Rel
Hum
%
Delta-T
°C
Wind Press
QNH
hPa
Press
MSL
hPa
Rain since
9am
mm
Dir  Spd
km/h
Gust
km/h
Spd
kts
Gust
kts
02/11:30pm 19.9 20.3 19.9 100 0.0 NNW 17 20 9 11 1011.4 1011.3 7.8
02/11:00pm 20.2 19.8 20.2 100 0.0 N 22 28 12 15 1011.1 1011.0 7.8
02/10:30pm 20.2 18.3 20.2 100 0.0 N 30 35 16 19 1011.0 1010.9 7.8
02/10:00pm 20.1 19.3 20.1 100 0.0 N 24 28 13 15 1011.5 1011.4 7.8
02/09:30pm 20.2 18.7 20.2 100 0.0 N 28 32 15 17 1011.8 1011.7 7.8
02/09:00pm 20.2 19.1 20.2 100 0.0 N 26 30 14 16 1012.0 1011.9 7.0
02/08:30pm 20.1 19.3 20.1 100 0.0 N 24 28 13 15 1011.8 1011.7 6.0
02/08:00pm 20.1 18.5 20.1 100 0.0 N 28 30 15 16 1011.8 1011.7 5.0
02/07:30pm 20.3 19.6 20.3 100 0.0 NNE 24 28 13 15 1011.5 1011.4 3.8
02/07:00pm 20.3 20.0 20.3 100 0.0 NNE 22 24 12 13 1011.3 1011.2 2.8
02/06:30pm 20.7 21.0 20.4 98 0.2 NNE 19 20 10 11 1011.4 1011.3 2.6
02/06:00pm 20.9 23.3 20.1 95 0.5 N 7 9 4 5 1011.7 1011.6 2.0
02/05:30pm 21.2 21.6 19.8 92 0.9 N 17 20 9 11 1011.6 1011.5 1.0
02/05:00pm 21.9 24.7 20.4 91 1.0 WNW 6 13 3 7 1011.7 1011.6 0.0
02/04:30pm 22.1 22.7 21.4 96 0.5 NNE 20 24 11 13 1011.4 1011.3 0.0
02/04:00pm 22.2 21.3 21.5 96 0.5 NNE 28 32 15 17 1011.3 1011.2 0.0

Other formats

Comma delimited format used in spreadsheet applications
http://www.bom.gov.au/fwo/IDN60801/IDN60801.95770.axf

JavaScript Object Notation format (JSON) in row-major order
http://www.bom.gov.au/fwo/IDN60801/IDN60801.95770.json

Data quality

Most of these data are generated automatically and are frequently updated. Quality checks on data are not normally performed. It is possible for incorrect values to appear. Refer to information at About Latest Weather Observations and please check the disclaimer before using these data.